createdAt,value
2022-10-05T00:00:15.004Z,0
2022-10-05T00:01:21.321Z,0
2022-10-05T00:02:27.656Z,0
2022-10-05T00:03:33.987Z,0
2022-10-05T00:04:40.320Z,0
2022-10-05T00:05:46.652Z,0
2022-10-05T00:06:52.984Z,0
2022-10-05T00:07:59.342Z,0
2022-10-05T00:09:05.666Z,0
2022-10-05T00:10:12.006Z,0
2022-10-05T00:11:18.335Z,0
2022-10-05T00:12:24.693Z,0
2022-10-05T00:13:31.011Z,0
2022-10-05T00:14:37.374Z,0
2022-10-05T00:15:43.809Z,0
2022-10-05T00:16:49.193Z,0
2022-10-05T00:17:55.445Z,0
2022-10-05T00:19:01.708Z,0
2022-10-05T00:20:07.973Z,0
2022-10-05T00:21:14.521Z,0
2022-10-05T00:22:20.486Z,0
2022-10-05T00:23:26.750Z,0
2022-10-05T00:24:33.010Z,0
2022-10-05T00:25:39.263Z,0
2022-10-05T00:26:45.527Z,0
2022-10-05T00:27:51.890Z,0
2022-10-05T00:28:58.078Z,0
2022-10-05T00:30:04.298Z,0
2022-10-05T00:31:10.554Z,0
2022-10-05T00:32:16.825Z,0
2022-10-05T00:33:23.094Z,0
2022-10-05T00:34:29.360Z,0
2022-10-05T00:35:35.606Z,0
2022-10-05T00:36:41.890Z,0
2022-10-05T00:37:48.143Z,0
2022-10-05T00:38:54.395Z,0
2022-10-05T00:40:00.671Z,0
2022-10-05T00:41:06.934Z,0
2022-10-05T00:42:13.183Z,0
2022-10-05T00:43:19.465Z,0
2022-10-05T00:44:25.818Z,0
2022-10-05T00:45:32.138Z,0
2022-10-05T00:46:38.501Z,0
2022-10-05T00:47:44.809Z,0
2022-10-05T00:48:51.154Z,0
2022-10-05T00:49:57.495Z,0
2022-10-05T00:51:03.890Z,0
2022-10-05T00:52:10.199Z,0
2022-10-05T00:53:16.515Z,0
2022-10-05T00:54:22.880Z,0
2022-10-05T00:55:29.230Z,0
2022-10-05T00:56:35.573Z,0
2022-10-05T00:57:41.882Z,0
2022-10-05T00:58:48.347Z,0
2022-10-05T00:59:53.768Z,0
2022-10-05T01:01:00.002Z,0
2022-10-05T01:02:06.262Z,0
2022-10-05T01:03:12.596Z,0
2022-10-05T01:04:18.861Z,0
2022-10-05T01:05:25.075Z,0
2022-10-05T01:06:31.320Z,0
2022-10-05T01:07:37.625Z,0
2022-10-05T01:08:43.876Z,0
2022-10-05T01:09:50.095Z,0
2022-10-05T01:10:56.356Z,0
2022-10-05T01:12:02.640Z,0
2022-10-05T01:13:08.883Z,0
2022-10-05T01:14:15.151Z,0
2022-10-05T01:15:21.409Z,0
2022-10-05T01:16:27.672Z,0
2022-10-05T01:17:33.942Z,0
2022-10-05T01:18:40.252Z,0
2022-10-05T01:19:46.464Z,0
2022-10-05T01:20:52.726Z,0
2022-10-05T01:21:58.990Z,0
2022-10-05T01:23:05.242Z,0
2022-10-05T01:24:11.544Z,0
2022-10-05T01:25:17.822Z,0
2022-10-05T01:26:24.031Z,0
2022-10-05T01:27:30.370Z,0
2022-10-05T01:28:36.706Z,0
2022-10-05T01:29:43.048Z,0
2022-10-05T01:30:49.383Z,0
2022-10-05T01:31:55.717Z,0
2022-10-05T01:33:02.059Z,0
2022-10-05T01:34:08.410Z,0
2022-10-05T01:35:14.755Z,0
2022-10-05T01:36:21.099Z,0
2022-10-05T01:37:27.453Z,0
2022-10-05T01:38:33.830Z,0
2022-10-05T01:39:40.137Z,0
2022-10-05T01:40:46.480Z,0
2022-10-05T01:41:53.027Z,0
2022-10-05T01:42:58.353Z,0
2022-10-05T01:44:04.632Z,0
2022-10-05T01:45:10.912Z,0
2022-10-05T01:46:17.158Z,0
2022-10-05T01:47:23.418Z,0
2022-10-05T01:48:29.678Z,0
2022-10-05T01:49:35.945Z,0
2022-10-05T01:50:42.219Z,0
2022-10-05T01:51:48.509Z,0
2022-10-05T01:52:54.742Z,0
2022-10-05T01:54:01.009Z,0
2022-10-05T01:55:07.261Z,0
2022-10-05T01:56:13.536Z,0
2022-10-05T01:57:19.790Z,0
2022-10-05T01:58:26.095Z,0
2022-10-05T01:59:32.316Z,0
2022-10-05T02:00:38.579Z,0
2022-10-05T02:01:44.850Z,0
2022-10-05T02:02:51.163Z,0
2022-10-05T02:03:57.389Z,0
2022-10-05T02:05:03.721Z,0
2022-10-05T02:06:09.978Z,0
2022-10-05T02:07:16.176Z,0
2022-10-05T02:08:22.448Z,0
2022-10-05T02:09:28.725Z,0
2022-10-05T02:10:35.059Z,0
2022-10-05T02:11:41.428Z,0
2022-10-05T02:12:47.741Z,0
2022-10-05T02:13:54.099Z,0
2022-10-05T02:15:00.421Z,0
2022-10-05T02:16:06.772Z,0
2022-10-05T02:17:13.107Z,0
2022-10-05T02:18:19.463Z,0
2022-10-05T02:19:25.821Z,0
2022-10-05T02:20:32.148Z,0
2022-10-05T02:21:38.493Z,0
2022-10-05T02:22:44.830Z,0
2022-10-05T02:23:51.170Z,0
2022-10-05T02:24:57.643Z,0
2022-10-05T02:26:03.054Z,0
2022-10-05T02:27:09.319Z,0
2022-10-05T02:28:15.591Z,0
2022-10-05T02:29:21.850Z,0
2022-10-05T02:30:28.121Z,0
2022-10-05T02:31:34.419Z,0
2022-10-05T02:32:40.688Z,0
2022-10-05T02:33:46.956Z,0
2022-10-05T02:34:53.214Z,0
2022-10-05T02:35:59.472Z,0
2022-10-05T02:37:05.742Z,0
2022-10-05T02:38:12.013Z,0
2022-10-05T02:39:18.287Z,0
2022-10-05T02:40:24.560Z,0
2022-10-05T02:41:30.820Z,0
2022-10-05T02:42:37.097Z,0
2022-10-05T02:43:43.378Z,0
2022-10-05T02:44:49.640Z,0
2022-10-05T02:45:55.924Z,0
2022-10-05T02:47:02.196Z,0
2022-10-05T02:48:08.466Z,0
2022-10-05T02:49:14.790Z,0
2022-10-05T02:50:21.021Z,0
2022-10-05T02:51:27.314Z,0
2022-10-05T02:52:33.557Z,0
2022-10-05T02:53:39.946Z,0
2022-10-05T02:54:46.272Z,0
2022-10-05T02:55:52.647Z,0
2022-10-05T02:56:59.080Z,0
2022-10-05T02:58:05.327Z,0
2022-10-05T02:59:11.678Z,0
2022-10-05T03:00:18.096Z,0
2022-10-05T03:01:24.383Z,0
2022-10-05T03:02:30.727Z,0
2022-10-05T03:03:37.132Z,0
2022-10-05T03:04:43.459Z,0
2022-10-05T03:05:49.792Z,0
2022-10-05T03:06:56.134Z,0
2022-10-05T03:08:02.611Z,0
2022-10-05T03:09:08.096Z,0
2022-10-05T03:10:14.444Z,0
2022-10-05T03:11:20.803Z,0
2022-10-05T03:12:27.152Z,0
2022-10-05T03:13:33.503Z,0
2022-10-05T03:14:39.854Z,0
2022-10-05T03:15:46.195Z,0
2022-10-05T03:16:52.560Z,0
2022-10-05T03:17:58.903Z,0
2022-10-05T03:19:05.258Z,0
2022-10-05T03:20:11.596Z,0
2022-10-05T03:21:17.950Z,0
2022-10-05T03:22:24.283Z,0
2022-10-05T03:23:30.632Z,0
2022-10-05T03:24:36.980Z,0
2022-10-05T03:25:43.326Z,0
2022-10-05T03:26:49.683Z,0
2022-10-05T03:27:56.015Z,0
2022-10-05T03:29:02.356Z,0
2022-10-05T03:30:08.735Z,0
2022-10-05T03:31:15.054Z,0
2022-10-05T03:32:21.398Z,0
2022-10-05T03:33:27.741Z,0
2022-10-05T03:34:34.089Z,0
2022-10-05T03:35:40.435Z,0
2022-10-05T03:36:46.913Z,0
2022-10-05T03:37:52.398Z,0
2022-10-05T03:38:58.742Z,0
2022-10-05T03:40:05.085Z,0
2022-10-05T03:41:11.432Z,0
2022-10-05T03:42:17.782Z,0
2022-10-05T03:43:24.125Z,0
2022-10-05T03:44:30.478Z,0
2022-10-05T03:45:36.806Z,0
2022-10-05T03:46:43.159Z,0
2022-10-05T03:47:49.509Z,0
2022-10-05T03:48:55.830Z,0
2022-10-05T03:50:02.181Z,0
2022-10-05T03:51:08.520Z,0
2022-10-05T03:52:14.871Z,0
2022-10-05T03:53:21.216Z,0
2022-10-05T03:54:27.548Z,0
2022-10-05T03:55:33.900Z,0
2022-10-05T03:56:40.238Z,0
2022-10-05T03:57:46.579Z,0
2022-10-05T03:58:52.922Z,0
2022-10-05T03:59:59.277Z,0
2022-10-05T04:01:05.621Z,0
2022-10-05T04:02:11.969Z,0
2022-10-05T04:03:18.312Z,0
2022-10-05T04:04:24.649Z,0
2022-10-05T04:05:31.140Z,0
2022-10-05T04:06:36.616Z,0
2022-10-05T04:07:42.992Z,0
2022-10-05T04:08:49.294Z,0
2022-10-05T04:09:55.639Z,0
2022-10-05T04:11:01.982Z,0
2022-10-05T04:12:08.331Z,0
2022-10-05T04:13:14.747Z,0
2022-10-05T04:14:21.005Z,0
2022-10-05T04:15:27.352Z,0
2022-10-05T04:16:33.686Z,0
2022-10-05T04:17:40.021Z,0
2022-10-05T04:18:46.353Z,0
2022-10-05T04:19:52.685Z,0
2022-10-05T04:20:59.023Z,0
2022-10-05T04:22:05.367Z,0
2022-10-05T04:23:11.696Z,0
2022-10-05T04:24:18.062Z,0
2022-10-05T04:25:24.406Z,0
2022-10-05T04:26:30.735Z,0
2022-10-05T04:27:37.085Z,0
2022-10-05T04:28:43.444Z,0
2022-10-05T04:29:49.771Z,0
2022-10-05T04:30:56.111Z,0
2022-10-05T04:32:02.454Z,0
2022-10-05T04:33:08.797Z,0
2022-10-05T04:34:15.266Z,0
2022-10-05T04:35:20.697Z,0
2022-10-05T04:36:26.936Z,0
2022-10-05T04:37:33.204Z,0
2022-10-05T04:38:39.519Z,0
2022-10-05T04:39:45.823Z,0
2022-10-05T04:40:52.007Z,0
2022-10-05T04:41:58.293Z,0
2022-10-05T04:43:04.564Z,0
2022-10-05T04:44:10.822Z,0
2022-10-05T04:45:17.087Z,3
2022-10-05T04:46:23.359Z,4
2022-10-05T04:47:29.643Z,0
2022-10-05T04:48:35.893Z,0
2022-10-05T04:49:42.162Z,4
2022-10-05T04:50:48.429Z,4
2022-10-05T04:51:54.703Z,1
2022-10-05T04:53:00.965Z,1
2022-10-05T04:54:07.225Z,9
2022-10-05T04:55:13.498Z,13
2022-10-05T04:56:19.757Z,10
2022-10-05T04:57:26.041Z,6
2022-10-05T04:58:32.279Z,10
2022-10-05T04:59:38.544Z,32
2022-10-05T05:00:44.799Z,20
2022-10-05T05:01:51.103Z,29
2022-10-05T05:02:57.400Z,38
2022-10-05T05:04:03.778Z,39
2022-10-05T05:05:10.163Z,52
2022-10-05T05:06:16.461Z,70
2022-10-05T05:07:22.783Z,75
2022-10-05T05:08:29.110Z,85
2022-10-05T05:09:35.473Z,90
2022-10-05T05:10:41.793Z,117
2022-10-05T05:11:48.137Z,128
2022-10-05T05:12:54.503Z,139
2022-10-05T05:14:00.847Z,176
2022-10-05T05:15:07.169Z,207
2022-10-05T05:16:13.517Z,229
2022-10-05T05:17:19.963Z,266
2022-10-05T05:18:25.376Z,289
2022-10-05T05:19:31.630Z,309
2022-10-05T05:20:37.892Z,339
2022-10-05T05:21:44.162Z,361
2022-10-05T05:22:50.429Z,395
2022-10-05T05:23:56.684Z,422
2022-10-05T05:25:02.950Z,487
2022-10-05T05:26:09.211Z,536
2022-10-05T05:27:15.504Z,559
2022-10-05T05:28:21.754Z,600
2022-10-05T05:29:28.010Z,686
2022-10-05T05:30:34.279Z,742
2022-10-05T05:31:40.541Z,846
2022-10-05T05:32:46.812Z,908
2022-10-05T05:33:53.081Z,1009
2022-10-05T05:34:59.356Z,1128
2022-10-05T05:36:05.616Z,1229
2022-10-05T05:37:11.942Z,1352
2022-10-05T05:38:18.155Z,1472
2022-10-05T05:39:24.438Z,1574
2022-10-05T05:40:30.705Z,1706
2022-10-05T05:41:37.046Z,1835
2022-10-05T05:42:43.243Z,1904
2022-10-05T05:43:49.610Z,2110
2022-10-05T05:44:55.815Z,2151
2022-10-05T05:46:02.181Z,2330
2022-10-05T05:47:08.505Z,2748
2022-10-05T05:48:14.865Z,2745
2022-10-05T05:49:21.210Z,2695
2022-10-05T05:50:27.514Z,2779
2022-10-05T05:51:33.873Z,2852
2022-10-05T05:52:40.277Z,2930
2022-10-05T05:53:46.574Z,3024
2022-10-05T05:54:52.895Z,3074
2022-10-05T05:55:59.243Z,3281
2022-10-05T05:57:05.578Z,3392
2022-10-05T05:58:11.920Z,3451
2022-10-05T05:59:18.269Z,3532
2022-10-05T06:00:24.726Z,3594
2022-10-05T06:01:30.126Z,3782
2022-10-05T06:02:36.555Z,4026
2022-10-05T06:03:42.760Z,4205
2022-10-05T06:04:48.930Z,4453
2022-10-05T06:05:55.262Z,4607
2022-10-05T06:07:01.431Z,4990
2022-10-05T06:08:07.694Z,4889
2022-10-05T06:09:14.055Z,4468
2022-10-05T06:10:20.300Z,6057
2022-10-05T06:11:26.514Z,8815
2022-10-05T06:12:32.738Z,9523
2022-10-05T06:13:39.043Z,10169
2022-10-05T06:14:45.241Z,6117
2022-10-05T06:15:51.506Z,7124
2022-10-05T06:16:57.913Z,18093
2022-10-05T06:18:04.059Z,17135
2022-10-05T06:19:10.351Z,21457
2022-10-05T06:20:16.503Z,20312
2022-10-05T06:21:22.721Z,12522
2022-10-05T06:22:28.985Z,13408
2022-10-05T06:23:35.144Z,18650
2022-10-05T06:24:41.363Z,30174
2022-10-05T06:25:47.593Z,24165
2022-10-05T06:26:53.922Z,18904
2022-10-05T06:28:00.074Z,58589
2022-10-05T06:29:06.350Z,39305
2022-10-05T06:30:11.580Z,35936
2022-10-05T06:31:16.715Z,38412
2022-10-05T06:32:22.920Z,51077
2022-10-05T06:33:28.115Z,47105
2022-10-05T06:34:33.357Z,48072
2022-10-05T06:35:38.476Z,64219
2022-10-05T06:36:43.687Z,24722
2022-10-05T06:37:49.841Z,27262
2022-10-05T06:38:55.113Z,23420
2022-10-05T06:40:00.218Z,15347
2022-10-05T06:41:06.415Z,10382
2022-10-05T06:42:12.571Z,29450
2022-10-05T06:43:18.686Z,32120
2022-10-05T06:44:24.913Z,35325
2022-10-05T06:45:31.017Z,18099
2022-10-05T06:46:37.178Z,15260
2022-10-05T06:47:43.338Z,13916
2022-10-05T06:48:49.503Z,12304
2022-10-05T06:49:55.724Z,8540
2022-10-05T06:51:01.848Z,27084
2022-10-05T06:52:08.022Z,46547
2022-10-05T06:53:14.220Z,39590
2022-10-05T06:54:19.393Z,32037
2022-10-05T06:55:25.527Z,29907
2022-10-05T06:56:31.690Z,29958
2022-10-05T06:57:37.857Z,30532
2022-10-05T06:58:44.026Z,38473
2022-10-05T06:59:50.177Z,34568
2022-10-05T07:00:56.348Z,40158
2022-10-05T07:02:02.584Z,32750
2022-10-05T07:03:08.650Z,27718
2022-10-05T07:04:14.811Z,49190
2022-10-05T07:05:20.967Z,34372
2022-10-05T07:06:27.171Z,50849
2022-10-05T07:07:33.332Z,34783
2022-10-05T07:08:38.424Z,31873
2022-10-05T07:09:44.579Z,5616
2022-10-05T07:10:50.706Z,61919
2022-10-05T07:11:56.889Z,51362
2022-10-05T07:13:03.012Z,39446
2022-10-05T07:14:09.108Z,31591
2022-10-05T07:15:15.243Z,53789
2022-10-05T07:16:21.363Z,3970
2022-10-05T07:17:27.505Z,48182
2022-10-05T07:18:33.619Z,19977
2022-10-05T07:19:39.735Z,23943
2022-10-05T07:20:45.848Z,32494
2022-10-05T07:21:52.139Z,25075
2022-10-05T07:22:58.119Z,33947
2022-10-05T07:24:04.239Z,29586
2022-10-05T07:25:10.276Z,33491
2022-10-05T07:26:16.444Z,24306
2022-10-05T07:27:22.467Z,23420
2022-10-05T07:28:28.545Z,13830
2022-10-05T07:29:34.659Z,9880
2022-10-05T07:30:40.712Z,49157
2022-10-05T07:31:46.793Z,43778
2022-10-05T07:32:52.894Z,34519
2022-10-05T07:33:58.991Z,35580
2022-10-05T07:35:05.050Z,32392
2022-10-05T07:36:11.141Z,29388
2022-10-05T07:37:17.234Z,27555
2022-10-05T07:38:23.375Z,24446
2022-10-05T07:39:29.485Z,22071
2022-10-05T07:40:35.536Z,20445
2022-10-05T07:41:41.586Z,19514
2022-10-05T07:42:47.718Z,18482
2022-10-05T07:43:53.789Z,19686
2022-10-05T07:44:59.907Z,16862
2022-10-05T07:46:06.020Z,23603
2022-10-05T07:47:12.144Z,15823
2022-10-05T07:48:18.366Z,29051
2022-10-05T07:49:24.527Z,25221
2022-10-05T07:50:29.605Z,19199
2022-10-05T07:51:35.710Z,31405
2022-10-05T07:52:41.780Z,33706
2022-10-05T07:53:47.871Z,17671
2022-10-05T07:54:53.952Z,33228
2022-10-05T07:56:00.085Z,24135
2022-10-05T07:57:06.119Z,4800
2022-10-05T07:58:12.340Z,16794
2022-10-05T07:59:18.338Z,34395
2022-10-05T08:00:24.375Z,33787
2022-10-05T08:01:30.492Z,35610
2022-10-05T08:02:36.608Z,296
2022-10-05T08:03:42.590Z,15000
2022-10-05T08:04:48.696Z,35944
2022-10-05T08:05:54.786Z,20758
2022-10-05T08:07:00.906Z,23590
2022-10-05T08:08:06.980Z,28442
2022-10-05T08:09:13.014Z,28631
2022-10-05T08:10:19.066Z,31185
2022-10-05T08:11:25.020Z,23262
2022-10-05T08:12:31.106Z,18992
2022-10-05T08:13:37.123Z,19093
2022-10-05T08:14:43.084Z,32870
2022-10-05T08:15:49.160Z,19258
2022-10-05T08:16:55.156Z,21484
2022-10-05T08:18:01.298Z,21127
2022-10-05T08:19:07.311Z,27930
2022-10-05T08:20:13.449Z,28785
2022-10-05T08:21:19.522Z,27102
2022-10-05T08:22:25.641Z,34067
2022-10-05T08:23:31.648Z,21979
2022-10-05T08:24:37.718Z,19886
2022-10-05T08:25:43.812Z,19314
2022-10-05T08:26:49.976Z,20081
2022-10-05T08:27:55.988Z,24882
2022-10-05T08:29:01.998Z,23149
2022-10-05T08:30:08.070Z,4983
2022-10-05T08:31:14.135Z,17541
2022-10-05T08:32:20.325Z,24882
2022-10-05T08:33:26.562Z,19538
2022-10-05T08:34:32.735Z,18725
2022-10-05T08:35:38.911Z,19828
2022-10-05T08:36:45.112Z,19479
2022-10-05T08:37:51.299Z,32678
2022-10-05T08:38:57.463Z,32985
2022-10-05T08:40:03.652Z,19081
2022-10-05T08:41:09.838Z,17899
2022-10-05T08:42:16.029Z,31419
2022-10-05T08:43:22.214Z,29724
2022-10-05T08:44:28.388Z,33331
2022-10-05T08:45:34.621Z,25185
2022-10-05T08:48:09.411Z,29450
2022-10-05T08:49:14.733Z,12971
2022-10-05T08:50:20.724Z,41441
2022-10-05T08:51:26.727Z,20667
2022-10-05T08:52:32.775Z,17919
2022-10-05T08:53:38.744Z,8261
2022-10-05T08:54:44.754Z,21976
2022-10-05T08:55:50.784Z,25120
2022-10-05T08:56:56.749Z,34319
2022-10-05T08:58:02.775Z,22888
2022-10-05T08:59:08.785Z,32560
2022-10-05T09:00:14.807Z,24690
2022-10-05T09:01:20.805Z,21571
2022-10-05T09:02:26.850Z,7553
2022-10-05T09:03:32.815Z,62134
2022-10-05T09:04:38.864Z,39712
2022-10-05T09:05:44.886Z,26545
2022-10-05T09:06:50.857Z,23882
2022-10-05T09:07:56.882Z,23072
2022-10-05T09:09:02.893Z,27209
2022-10-05T09:10:08.920Z,22699
2022-10-05T09:11:14.940Z,23909
2022-10-05T09:12:20.973Z,22524
2022-10-05T09:13:27.004Z,23001
2022-10-05T09:14:33.032Z,24582
2022-10-05T09:15:39.065Z,20582
2022-10-05T09:16:45.310Z,19594
2022-10-05T09:17:51.345Z,18895
2022-10-05T09:18:57.439Z,18357
2022-10-05T09:20:03.508Z,17014
2022-10-05T09:21:09.618Z,16697
2022-10-05T09:22:15.738Z,16242
2022-10-05T09:23:21.942Z,16641
2022-10-05T09:24:28.037Z,16326
2022-10-05T09:25:34.125Z,13863
2022-10-05T09:26:40.295Z,15120
2022-10-05T09:27:46.447Z,14450
2022-10-05T09:28:52.464Z,14642
2022-10-05T09:29:58.602Z,15500
2022-10-05T09:31:04.840Z,16472
2022-10-05T09:32:10.048Z,17624
2022-10-05T09:33:16.136Z,21711
2022-10-05T09:34:22.175Z,17156
2022-10-05T09:35:28.275Z,14489
2022-10-05T09:36:34.275Z,20958
2022-10-05T09:37:40.361Z,18730
2022-10-05T09:38:46.406Z,18308
2022-10-05T09:39:52.454Z,18445
2022-10-05T09:40:58.533Z,18140
2022-10-05T09:42:04.716Z,19226
2022-10-05T09:43:10.788Z,17745
2022-10-05T09:44:16.779Z,15653
2022-10-05T09:45:22.832Z,14693
2022-10-05T09:46:28.941Z,13382
2022-10-05T09:47:34.977Z,13151
2022-10-05T09:48:41.086Z,13727
2022-10-05T09:49:47.243Z,13963
2022-10-05T09:50:53.296Z,12093
2022-10-05T09:51:59.429Z,11162
2022-10-05T09:53:05.399Z,12401
2022-10-05T09:54:11.474Z,11177
2022-10-05T09:55:17.552Z,11168
2022-10-05T09:56:23.731Z,10979
2022-10-05T09:57:29.793Z,10934
2022-10-05T09:58:35.897Z,10701
2022-10-05T09:59:42.022Z,10753
2022-10-05T10:00:48.212Z,10529
2022-10-05T10:01:54.441Z,10286
2022-10-05T10:03:00.540Z,10293
2022-10-05T10:04:06.715Z,10346
2022-10-05T10:05:12.890Z,10387
2022-10-05T10:06:19.075Z,10253
2022-10-05T10:07:24.244Z,10379
2022-10-05T10:08:30.359Z,10329
2022-10-05T10:09:36.484Z,9976
2022-10-05T10:10:42.533Z,10136
2022-10-05T10:11:48.737Z,10153
2022-10-05T10:12:54.726Z,10218
2022-10-05T10:14:00.854Z,10464
2022-10-05T10:15:06.932Z,10158
2022-10-05T10:16:13.031Z,10617
2022-10-05T10:17:19.126Z,10748
2022-10-05T10:18:25.233Z,12039
2022-10-05T10:19:31.324Z,12591
2022-10-05T10:20:37.464Z,13641
2022-10-05T10:21:43.519Z,11497
2022-10-05T10:22:49.746Z,9946
2022-10-05T10:23:55.802Z,10043
2022-10-05T10:25:01.882Z,9593
2022-10-05T10:26:07.941Z,10139
2022-10-05T10:27:14.017Z,9319
2022-10-05T10:28:20.106Z,10242
2022-10-05T10:29:26.194Z,9528
2022-10-05T10:30:32.292Z,9735
2022-10-05T10:31:38.539Z,10342
2022-10-05T10:32:44.597Z,9926
2022-10-05T10:33:50.665Z,10328
2022-10-05T10:34:56.810Z,11081
2022-10-05T10:36:01.988Z,9043
2022-10-05T10:37:08.113Z,7993
2022-10-05T10:38:14.211Z,8683
2022-10-05T10:39:20.263Z,9388
2022-10-05T10:40:26.385Z,9524
2022-10-05T10:41:32.454Z,9748
2022-10-05T10:42:38.644Z,9768
2022-10-05T10:43:44.807Z,9001
2022-10-05T10:44:50.790Z,8812
2022-10-05T10:45:56.933Z,8983
2022-10-05T10:47:03.026Z,9553
2022-10-05T10:48:09.134Z,9458
2022-10-05T10:49:15.198Z,9690
2022-10-05T10:50:21.303Z,9754
2022-10-05T10:51:27.425Z,9832
2022-10-05T10:52:33.507Z,10016
2022-10-05T10:53:39.611Z,9957
2022-10-05T10:54:45.728Z,9932
2022-10-05T10:55:51.841Z,10114
2022-10-05T10:56:57.964Z,10792
2022-10-05T10:58:04.149Z,9921
2022-10-05T10:59:10.225Z,10912
2022-10-05T11:00:16.230Z,9327
2022-10-05T11:01:22.323Z,8880
2022-10-05T11:02:28.433Z,8856
2022-10-05T11:03:34.619Z,8797
2022-10-05T11:04:39.803Z,7684
2022-10-05T11:05:45.915Z,7651
2022-10-05T11:06:52.016Z,7715
2022-10-05T11:07:58.133Z,8003
2022-10-05T11:09:04.241Z,7865
2022-10-05T11:10:10.323Z,8070
2022-10-05T11:11:16.424Z,8350
2022-10-05T11:12:22.618Z,8454
2022-10-05T11:13:28.646Z,8115
2022-10-05T11:14:34.774Z,7452
2022-10-05T11:15:40.923Z,7320
2022-10-05T11:16:47.012Z,7802
2022-10-05T11:17:53.102Z,10197
2022-10-05T11:18:59.203Z,11340
2022-10-05T11:20:05.421Z,8953
2022-10-05T11:21:11.411Z,10126
2022-10-05T11:22:17.517Z,11581
2022-10-05T11:23:23.627Z,11612
2022-10-05T11:24:29.737Z,11158
2022-10-05T11:25:35.832Z,11328
2022-10-05T11:26:41.948Z,11401
2022-10-05T11:27:48.057Z,11537
2022-10-05T11:28:54.149Z,11528
2022-10-05T11:30:00.250Z,11326
2022-10-05T11:31:06.479Z,11415
2022-10-05T11:32:12.612Z,11317
2022-10-05T11:33:18.697Z,11020
2022-10-05T11:34:24.975Z,10745
2022-10-05T11:35:30.052Z,10793
2022-10-05T11:36:36.190Z,10563
2022-10-05T11:37:42.245Z,10457
2022-10-05T11:38:48.343Z,10309
2022-10-05T11:39:54.442Z,10341
2022-10-05T11:41:00.548Z,10094
2022-10-05T11:42:06.747Z,10060
2022-10-05T11:43:12.706Z,9958
2022-10-05T11:44:18.898Z,9721
2022-10-05T11:45:24.896Z,9732
2022-10-05T11:46:31.086Z,9626
2022-10-05T11:47:37.143Z,9458
2022-10-05T11:48:43.164Z,9160
2022-10-05T11:49:49.274Z,9041
2022-10-05T11:50:55.335Z,9067
2022-10-05T11:52:01.510Z,8929
2022-10-05T11:53:07.639Z,8991
2022-10-05T11:54:13.603Z,8736
2022-10-05T11:55:19.667Z,8757
2022-10-05T11:56:25.848Z,8474
2022-10-05T11:57:31.904Z,8665
2022-10-05T11:58:37.967Z,8602
2022-10-05T11:59:44.020Z,8513
2022-10-05T12:00:50.084Z,8532
2022-10-05T12:01:56.159Z,8738
2022-10-05T12:03:02.346Z,8068
2022-10-05T12:04:08.455Z,8473
2022-10-05T12:05:14.605Z,8368
2022-10-05T12:06:20.761Z,8381
2022-10-05T12:07:26.908Z,8380
2022-10-05T12:08:33.057Z,8284
2022-10-05T12:09:39.293Z,8289
2022-10-05T12:10:45.447Z,8399
2022-10-05T12:11:51.552Z,8135
2022-10-05T12:12:57.748Z,8143
2022-10-05T12:14:03.975Z,8182
2022-10-05T12:15:10.019Z,7710
2022-10-05T12:16:16.165Z,7833
2022-10-05T12:17:22.454Z,7969
2022-10-05T12:18:27.677Z,8113
2022-10-05T12:19:33.760Z,7939
2022-10-05T12:20:39.840Z,8281
2022-10-05T12:21:45.916Z,8133
2022-10-05T12:22:52.055Z,7887
2022-10-05T12:23:58.064Z,7767
2022-10-05T12:25:04.158Z,7695
2022-10-05T12:26:10.238Z,8119
2022-10-05T12:27:16.319Z,7690
2022-10-05T12:28:22.396Z,7510
2022-10-05T12:29:28.473Z,7454
2022-10-05T12:30:34.562Z,7575
2022-10-05T12:31:40.647Z,7600
2022-10-05T12:32:46.733Z,7749
2022-10-05T12:33:52.838Z,7577
2022-10-05T12:34:58.878Z,7559
2022-10-05T12:36:04.961Z,7513
2022-10-05T12:37:11.069Z,7574
2022-10-05T12:38:17.134Z,7636
2022-10-05T12:39:23.228Z,7590
2022-10-05T12:40:29.313Z,7615
2022-10-05T12:41:35.420Z,7583
2022-10-05T12:42:41.483Z,7494
2022-10-05T12:43:47.631Z,7522
2022-10-05T12:44:53.684Z,7405
2022-10-05T12:45:59.865Z,7371
2022-10-05T12:47:05.992Z,7320
2022-10-05T12:48:12.199Z,7442
2022-10-05T12:49:18.325Z,7344
2022-10-05T12:50:24.505Z,7306
2022-10-05T12:51:30.645Z,7458
2022-10-05T12:52:36.821Z,7587
2022-10-05T12:53:42.969Z,7301
2022-10-05T12:54:49.131Z,7401
2022-10-05T12:55:55.300Z,7452
2022-10-05T12:57:01.465Z,7346
2022-10-05T12:58:07.625Z,7333
2022-10-05T12:59:13.825Z,7343
2022-10-05T13:00:20.069Z,7200
2022-10-05T13:01:25.314Z,7247
2022-10-05T13:02:31.411Z,7308
2022-10-05T13:03:37.481Z,7271
2022-10-05T13:04:43.551Z,7244
2022-10-05T13:05:49.650Z,7251
2022-10-05T13:06:55.706Z,7303
2022-10-05T13:08:01.790Z,7239
2022-10-05T13:09:07.884Z,7280
2022-10-05T13:10:13.939Z,7215
2022-10-05T13:11:20.048Z,7199
2022-10-05T13:12:26.098Z,7147
2022-10-05T13:13:32.231Z,7270
2022-10-05T13:14:38.261Z,7285
2022-10-05T13:15:44.339Z,7073
2022-10-05T13:16:50.428Z,7160
2022-10-05T13:17:56.499Z,7067
2022-10-05T13:19:02.572Z,7084
2022-10-05T13:20:08.662Z,7077
2022-10-05T13:21:14.732Z,7159
2022-10-05T13:22:20.820Z,7066
2022-10-05T13:23:26.894Z,7130
2022-10-05T13:24:32.960Z,7127
2022-10-05T13:25:39.151Z,7148
2022-10-05T13:26:45.119Z,7130
2022-10-05T13:27:51.191Z,7095
2022-10-05T13:28:57.362Z,7134
2022-10-05T13:30:03.531Z,7103
2022-10-05T13:31:09.682Z,7107
2022-10-05T13:32:15.847Z,7031
2022-10-05T13:33:22.001Z,6935
2022-10-05T13:34:28.170Z,6835
2022-10-05T13:35:34.321Z,6856
2022-10-05T13:36:40.478Z,6840
2022-10-05T13:37:46.647Z,6811
2022-10-05T13:38:52.802Z,6794
2022-10-05T13:39:58.989Z,6773
2022-10-05T13:41:05.121Z,6735
2022-10-05T13:42:11.291Z,6625
2022-10-05T13:43:17.607Z,6616
2022-10-05T13:44:22.848Z,6598
2022-10-05T13:45:28.902Z,6584
2022-10-05T13:46:35.018Z,6557
2022-10-05T13:47:41.116Z,6557
2022-10-05T13:48:47.246Z,6489
2022-10-05T13:49:53.283Z,6503
2022-10-05T13:50:59.426Z,6535
2022-10-05T13:52:05.475Z,6507
2022-10-05T13:53:11.577Z,6532
2022-10-05T13:54:17.670Z,6506
2022-10-05T13:55:23.767Z,6487
2022-10-05T13:56:29.859Z,6381
2022-10-05T13:57:35.972Z,6388
2022-10-05T13:58:42.064Z,6378
2022-10-05T13:59:48.190Z,6367
2022-10-05T14:00:54.276Z,6395
2022-10-05T14:02:00.385Z,6411
2022-10-05T14:03:06.481Z,6257
2022-10-05T14:04:12.591Z,6166
2022-10-05T14:05:18.696Z,6229
2022-10-05T14:06:24.805Z,6307
2022-10-05T14:07:30.912Z,6353
2022-10-05T14:08:37.073Z,6381
2022-10-05T14:09:43.129Z,6296
2022-10-05T14:10:49.253Z,6242
2022-10-05T14:11:55.524Z,6212
2022-10-05T14:13:00.640Z,6221
2022-10-05T14:14:06.732Z,6238
2022-10-05T14:15:12.823Z,6252
2022-10-05T14:16:19.030Z,6204
2022-10-05T14:17:25.055Z,6142
2022-10-05T14:18:31.153Z,6169
2022-10-05T14:19:37.295Z,6222
2022-10-05T14:20:43.427Z,6171
2022-10-05T14:21:49.494Z,6161
2022-10-05T14:22:55.654Z,6103
2022-10-05T14:24:01.709Z,6062
2022-10-05T14:25:07.893Z,6051
2022-10-05T14:26:13.949Z,6082
2022-10-05T14:27:20.044Z,6071
2022-10-05T14:28:26.158Z,6079
2022-10-05T14:29:32.275Z,6073
2022-10-05T14:30:38.410Z,6037
2022-10-05T14:31:44.484Z,6057
2022-10-05T14:32:50.600Z,5992
2022-10-05T14:33:56.702Z,5982
2022-10-05T14:35:02.802Z,5928
2022-10-05T14:36:08.915Z,5950
2022-10-05T14:37:15.024Z,5945
2022-10-05T14:38:21.133Z,5880
2022-10-05T14:39:27.264Z,5820
2022-10-05T14:40:33.422Z,5815
2022-10-05T14:41:38.615Z,5826
2022-10-05T14:42:44.716Z,5777
2022-10-05T14:43:50.824Z,5742
2022-10-05T14:44:56.981Z,5777
2022-10-05T14:46:03.053Z,5780
2022-10-05T14:47:09.158Z,5754
2022-10-05T14:48:15.268Z,5759
2022-10-05T14:49:21.377Z,5759
2022-10-05T14:50:27.484Z,5772
2022-10-05T14:51:33.602Z,5746
2022-10-05T14:52:39.696Z,5701
2022-10-05T14:53:45.809Z,5724
2022-10-05T14:54:51.922Z,5705
2022-10-05T14:55:58.034Z,5702
2022-10-05T14:57:04.140Z,5685
2022-10-05T14:58:10.257Z,5681
2022-10-05T14:59:16.377Z,5664
2022-10-05T15:00:22.474Z,5642
2022-10-05T15:01:28.594Z,5629
2022-10-05T15:02:34.710Z,5631
2022-10-05T15:03:40.788Z,5608